Contact Us:
Email: info@sawbill.com
Phone: (218)663-7150
Fax: (218)663-7980
Mail: 4620 Sawbill Trail
Box 2129
Tofte, MN 55615


Powered by
Movable Type 3.15
 
Sawbill Weather History Archives: August 2016
Current Sawbill Weather History | « July 2016 | September 2016 »


Date

High
Temperature

Low
Temperature

Barometric
Pressure

Relative
Humidity 7AM

9 AM
Temperature

Moisture

Snow

8/31/16 69 48 30.22 77% 50 0
8/30/16 74 45 30.12 88% 48 0
8/29/16 76 58 30.10 82% 58 .02"
8/28/16 74 55 30.10 98% 62 .43"
8/27/16 66 52 30.12 89% 55 Trace
8/26/16 67 51 30.10 81% 52 Trace
8/25/16 68 54 30.06 84% 54 .16"
8/24/16 78 56 29.99 73% 56 0
8/23/16 77 58 29.94 84% 60 Trace
8/22/16 73 51 30.01 81% 58 Trace
8/21/16 64 48 30.00 89% 51 .16"
8/20/16 78 51 29.90 87% 51 .54"
8/19/16 78 58 29.90 72% 61 .02"
8/18/16 81 58 29.98 98% 58 0
8/17/16 79 58 30.00 76% 58 0
8/16/16 77 52 30.04 83% 58 0
8/15/16 77 52 30.06 84% 60 Trace
8/14/16 72 51 30.09 76% 52 0
8/13/16 71 56 30.01 93% 58 .03"
8/12/16 70 58 29.96 98% 59 .28"
8/11/16 67 56 30.00 96% 62 .3"
8/10/16 63 51 30.02 98% 61 .12"
8/9/16 81 56 30.08 74% 56 Trace
8/7/16 73 49 30.08 80% 60 0
8/6/16 71 51 30.08 70% 51 0
8/5/16 71 58 30.01 89% 59 Trace
8/4/16 79 52 29.87 83% 62 .03"
8/3/16 82 58 29.88 98% 65 .55"
8/2/16 77 58 30.06 77% 58 .22"
8/1/16 78 55 30.08 97% 63 .39"
 


Home I Trip Planning I Rentals and Outfitting I Reservations I Campgrounds I Sawbill Store I Sawbill News I Contact

© 1997 - 2017, Sawbill Canoe Outfitters, Inc. I Privacy Policy